CheckWX is a tool to help pilots better visualize weather data.  It is not intended as a substitute for an official pre-flight weather briefing.

13:12:45 UTC

KHSE METAR
Billy Mitchell Airport
Hatteras, North Carolina, USA
Current

22 mins ago

KHSE 231251Z AUTO VRB06KT 10SM SCT044 OVC060 09/07 A3030 RMK AO2 SLP259 T00940072
Observed
Jan-23 @ 12:51 UTC
Wind
  • Variable at 6 KTS
Visibility
10 SM
Flight Rules
VFR
Cloud Levels
  • Scattered at 4,400' AGL
  • Overcast at 6,000' AGL
Temperature
C / 48°F
Dewpoint
C / 45°F
Humidity
87%
Altimeter
30.3" Hg
Pressure
1026.12 hPa
Previous

1 hour ago

KHSE 231151Z AUTO 03007KT 010V070 10SM FEW042 BKN065 09/07 A3028 RMK AO2 SLP253 T00890067 10089 20078 51005
Observed
Jan-23 @ 11:51 UTC
Wind
  • 030° at 7 KTS
Visibility
10 SM
Flight Rules
VFR
Cloud Levels
  • Few at 4,200' AGL
  • Broken at 6,500' AGL
Temperature
C / 48°F
Dewpoint
C / 45°F
Humidity
87%
Altimeter
30.28" Hg
Pressure
1025.42 hPa
Previous

2 hours ago

KHSE 231051Z AUTO 03010G16KT 360V060 10SM FEW043 SCT050 08/07 A3027 RMK AO2 SLP251 T00830067
Observed
Jan-23 @ 10:51 UTC
Wind
  • 030° at 10 KTS
  • Gusting to 16 KTS
Visibility
10 SM
Flight Rules
VFR
Cloud Levels
  • Few at 4,300' AGL
  • Scattered at 5,000' AGL
Temperature
C / 46°F
Dewpoint
C / 45°F
Humidity
93%
Altimeter
30.27" Hg
Pressure
1025.02 hPa